createdAt,value
2022-10-13T00:01:48.272Z,91.25
2022-10-13T00:04:51.251Z,91.10
2022-10-13T00:07:56.604Z,91.17
2022-10-13T00:11:00.546Z,91.41
2022-10-13T00:14:04.795Z,91.41
2022-10-13T00:17:14.496Z,91.32
2022-10-13T00:20:17.786Z,91.54
2022-10-13T00:23:20.770Z,92.18
2022-10-13T00:26:25.400Z,91.94
2022-10-13T00:29:28.276Z,91.43
2022-10-13T00:32:31.275Z,91.08
2022-10-13T00:35:34.945Z,91.05
2022-10-13T00:38:37.478Z,91.53
2022-10-13T00:41:40.566Z,91.18
2022-10-13T00:45:02.310Z,91.07
2022-10-13T00:48:05.905Z,91.08
2022-10-13T00:51:11.220Z,91.50
2022-10-13T00:54:20.333Z,91.69
2022-10-13T00:57:23.512Z,91.91
2022-10-13T01:00:27.338Z,92.58
2022-10-13T01:03:30.878Z,92.21
2022-10-13T01:06:34.807Z,91.79
2022-10-13T01:09:38.035Z,91.58
2022-10-13T01:12:58.685Z,91.43
2022-10-13T01:16:21.316Z,91.65
2022-10-13T01:19:39.029Z,91.48
2022-10-13T01:23:06.803Z,91.50
2022-10-13T01:26:31.446Z,91.63
2022-10-13T01:30:06.396Z,92.24
2022-10-13T01:33:45.180Z,93.15
2022-10-13T01:37:19.299Z,92.47
2022-10-13T01:41:00.489Z,92.22
2022-10-13T01:44:25.282Z,92.58
2022-10-13T01:47:33.632Z,92.17
2022-10-13T01:50:38.287Z,92.21
2022-10-13T01:53:42.593Z,91.87
2022-10-13T01:56:55.613Z,92.42
2022-10-13T02:00:04.790Z,92.52
2022-10-13T02:03:27.091Z,91.94
2022-10-13T02:06:40.041Z,91.81
2022-10-13T02:09:58.358Z,92.32
2022-10-13T02:13:06.725Z,92.16
2022-10-13T02:16:11.077Z,91.99
2022-10-13T02:19:17.309Z,91.74
2022-10-13T02:22:23.389Z,91.70
2022-10-13T02:25:30.444Z,91.50
2022-10-13T02:28:34.442Z,91.42
2022-10-13T02:31:38.753Z,91.94
2022-10-13T02:34:41.428Z,91.93
2022-10-13T02:37:44.329Z,91.61
2022-10-13T02:40:48.302Z,91.63
2022-10-13T02:43:51.383Z,92.11
2022-10-13T02:46:54.179Z,92.06
2022-10-13T02:49:58.235Z,91.44
2022-10-13T02:53:03.128Z,91.53
2022-10-13T02:56:07.796Z,92.29
2022-10-13T02:59:13.214Z,92.12
2022-10-13T03:02:16.729Z,91.82
2022-10-13T03:05:21.244Z,92.09
2022-10-13T03:08:24.904Z,92.07
2022-10-13T03:11:31.184Z,92.43
2022-10-13T03:14:34.349Z,92.53
2022-10-13T03:17:37.220Z,92.47
2022-10-13T03:20:41.142Z,92.47
2022-10-13T03:23:46.258Z,92.44
2022-10-13T03:26:51.157Z,92.40
2022-10-13T03:29:55.815Z,92.43
2022-10-13T03:32:59.849Z,92.52
2022-10-13T03:36:06.348Z,92.83
2022-10-13T03:39:12.869Z,92.33
2022-10-13T03:42:18.327Z,92.24
2022-10-13T03:45:23.137Z,92.21
2022-10-13T03:48:27.812Z,92.45
2022-10-13T03:51:31.516Z,92.27
2022-10-13T03:54:35.132Z,92.13
2022-10-13T03:57:39.031Z,92.27
2022-10-13T04:00:43.258Z,92.01
2022-10-13T04:03:49.338Z,92.46
2022-10-13T04:06:52.308Z,92.50
2022-10-13T04:09:57.693Z,92.12
2022-10-13T04:13:02.227Z,92.58
2022-10-13T04:16:17.926Z,93.35
2022-10-13T04:19:31.451Z,93.02
2022-10-13T04:22:39.922Z,92.78
2022-10-13T04:25:43.724Z,93.05
2022-10-13T04:28:49.457Z,93.00
2022-10-13T04:31:55.631Z,92.85
2022-10-13T04:34:59.260Z,93.00
2022-10-13T04:38:03.123Z,93.23
2022-10-13T04:41:08.307Z,93.10
2022-10-13T04:44:12.619Z,93.44
2022-10-13T04:47:16.012Z,93.36
2022-10-13T04:50:20.694Z,92.98
2022-10-13T04:53:34.222Z,92.71
2022-10-13T04:56:37.790Z,92.89
2022-10-13T04:59:42.208Z,92.53
2022-10-13T05:02:46.306Z,92.40
2022-10-13T05:05:51.373Z,92.45
2022-10-13T05:08:59.194Z,92.40
2022-10-13T05:12:05.591Z,92.42
2022-10-13T05:15:09.084Z,92.14
2022-10-13T05:18:14.767Z,92.81
2022-10-13T05:21:22.424Z,92.52
2022-10-13T05:24:37.104Z,92.04
2022-10-13T05:27:45.306Z,91.71
2022-10-13T05:30:48.820Z,91.65
2022-10-13T05:33:52.785Z,92.16
2022-10-13T05:37:04.328Z,91.92
2022-10-13T05:40:30.498Z,91.08
2022-10-13T05:43:34.869Z,91.04
2022-10-13T05:46:37.659Z,91.62
2022-10-13T05:49:41.151Z,90.98
2022-10-13T05:52:44.897Z,90.49
2022-10-13T05:55:48.488Z,89.56
2022-10-13T05:58:57.982Z,88.41
2022-10-13T06:02:03.709Z,87.14
2022-10-13T06:05:11.596Z,85.84
2022-10-13T06:08:23.467Z,84.81
2022-10-13T06:11:27.915Z,83.16
2022-10-13T06:14:31.961Z,82.04
2022-10-13T06:17:38.425Z,81.08
2022-10-13T06:21:08.833Z,79.84
2022-10-13T06:24:22.585Z,78.65
2022-10-13T06:27:25.724Z,77.68
2022-10-13T06:30:31.319Z,76.83
2022-10-13T06:33:38.569Z,76.58
2022-10-13T06:37:04.130Z,75.01
2022-10-13T06:40:12.332Z,73.96
2022-10-13T06:43:16.868Z,73.22
2022-10-13T06:46:21.806Z,72.74
2022-10-13T06:54:19.513Z,69.34
2022-10-13T06:57:57.120Z,71.19
2022-10-13T07:01:00.564Z,70.01
2022-10-13T07:04:07.058Z,68.47
2022-10-13T07:07:10.383Z,65.64
2022-10-13T07:15:24.169Z,65.55
2022-10-13T07:18:29.657Z,64.54
2022-10-13T07:21:32.962Z,64.16
2022-10-13T07:24:40.907Z,62.89
2022-10-13T07:27:45.309Z,61.32
2022-10-13T07:30:48.391Z,59.74
2022-10-13T07:34:20.401Z,59.54
2022-10-13T07:41:26.141Z,59.85
2022-10-13T07:44:35.375Z,59.03
2022-10-13T07:47:40.406Z,57.93
2022-10-13T07:50:43.775Z,56.84
2022-10-13T07:53:49.574Z,55.50
2022-10-13T07:56:53.623Z,56.94
2022-10-13T07:59:57.661Z,56.16
2022-10-13T08:03:04.382Z,57.12
2022-10-13T08:06:09.324Z,55.37
2022-10-13T08:09:13.679Z,54.31
2022-10-13T08:12:21.724Z,55.78
2022-10-13T08:15:26.153Z,55.16
2022-10-13T08:18:30.566Z,53.82
2022-10-13T08:21:57.091Z,54.99
2022-10-13T08:25:03.359Z,56.73
2022-10-13T08:28:18.681Z,53.25
2022-10-13T08:31:24.991Z,53.17
2022-10-13T08:34:30.179Z,53.97
2022-10-13T08:37:35.065Z,53.23
2022-10-13T08:40:40.137Z,52.94
2022-10-13T08:44:47.638Z,51.97
2022-10-13T08:47:49.608Z,50.75
2022-10-13T08:50:59.983Z,51.54
2022-10-13T08:54:06.042Z,47.73
2022-10-13T08:57:25.695Z,48.56
2022-10-13T09:00:44.597Z,50.77
2022-10-13T09:04:33.132Z,51.05
2022-10-13T09:07:41.299Z,49.54
2022-10-13T09:14:42.440Z,49.40
2022-10-13T09:18:29.186Z,50.33
2022-10-13T09:22:27.664Z,50.32
2022-10-13T09:25:45.249Z,48.25
2022-10-13T09:28:50.407Z,49.48
2022-10-13T09:32:14.111Z,49.75
2022-10-13T09:35:26.739Z,49.58
2022-10-13T09:51:45.457Z,49.29
2022-10-13T09:55:37.134Z,50.19
2022-10-13T09:59:00.890Z,50.05
2022-10-13T10:02:55.459Z,51.58
2022-10-13T10:10:30.633Z,51.06
2022-10-13T10:13:44.116Z,51.38
2022-10-13T10:17:22.053Z,50.90
2022-10-13T10:25:16.190Z,50.20
2022-10-13T10:28:42.451Z,50.74
2022-10-13T10:32:55.833Z,51.53
2022-10-13T10:36:19.421Z,51.47
2022-10-13T10:40:07.538Z,51.71
2022-10-13T10:44:03.660Z,52.33
2022-10-13T10:55:36.393Z,52.56
2022-10-13T11:03:50.334Z,53.12
2022-10-13T11:07:13.573Z,53.09
2022-10-13T11:10:44.655Z,53.31
2022-10-13T11:22:24.403Z,53.52
2022-10-13T11:25:45.169Z,54.23
2022-10-13T11:29:00.318Z,53.93
2022-10-13T13:13:10.906Z,56.88
2022-10-13T13:38:56.383Z,56.26
2022-10-13T13:42:27.393Z,56.43
2022-10-13T13:45:41.645Z,57.78
2022-10-13T13:49:19.491Z,57.38
2022-10-13T14:05:04.416Z,57.60
2022-10-13T14:17:07.257Z,58.59
2022-10-13T14:45:19.266Z,59.49
2022-10-13T14:52:35.390Z,61.79
2022-10-13T15:13:12.352Z,60.46
2022-10-13T16:22:54.444Z,78.30
2022-10-13T16:26:15.563Z,78.28
2022-10-13T16:29:31.247Z,78.88
2022-10-13T16:32:45.359Z,78.63
2022-10-13T16:35:49.288Z,79.12
2022-10-13T16:38:56.629Z,79.47
2022-10-13T16:50:28.839Z,81.09
2022-10-13T16:58:14.835Z,81.96
2022-10-13T17:02:58.413Z,82.28
2022-10-13T17:09:47.186Z,82.99
2022-10-13T17:13:24.485Z,83.34
2022-10-13T17:16:38.921Z,83.66
2022-10-13T17:19:54.670Z,84.25
2022-10-13T17:23:06.714Z,84.22
2022-10-13T17:26:16.751Z,84.28
2022-10-13T17:29:31.486Z,84.96
2022-10-13T17:32:49.503Z,84.91
2022-10-13T17:36:07.433Z,85.14
2022-10-13T17:39:20.428Z,85.44
2022-10-13T17:42:25.988Z,85.29
2022-10-13T17:45:37.420Z,85.63
2022-10-13T17:48:43.694Z,85.76
2022-10-13T17:51:55.472Z,85.80
2022-10-13T17:55:12.536Z,85.80
2022-10-13T17:58:22.413Z,85.83
2022-10-13T18:01:28.974Z,85.78
2022-10-13T18:04:34.440Z,85.93
2022-10-13T18:07:51.596Z,85.84
2022-10-13T18:11:09.316Z,85.95
2022-10-13T18:14:27.377Z,85.95
2022-10-13T18:17:34.442Z,86.12
2022-10-13T18:20:46.492Z,86.01
2022-10-13T18:24:02.679Z,85.89
2022-10-13T18:27:19.836Z,86.17
2022-10-13T18:30:30.459Z,86.31
2022-10-13T18:33:36.966Z,86.77
2022-10-13T18:36:56.547Z,86.94
2022-10-13T18:40:17.280Z,86.52
2022-10-13T18:43:29.272Z,86.17
2022-10-13T18:46:43.419Z,86.08
2022-10-13T18:49:50.375Z,85.90
2022-10-13T18:52:55.480Z,86.07
2022-10-13T18:56:16.701Z,86.27
2022-10-13T18:59:27.053Z,86.27
2022-10-13T19:02:40.602Z,85.90
2022-10-13T19:05:44.543Z,85.87
2022-10-13T19:09:10.301Z,86.20
2022-10-13T19:12:17.509Z,85.97
2022-10-13T19:15:31.504Z,85.74
2022-10-13T19:18:45.593Z,85.73
2022-10-13T19:21:49.889Z,86.32
2022-10-13T19:24:55.551Z,86.09
2022-10-13T19:28:09.500Z,86.02
2022-10-13T19:31:26.174Z,86.01
2022-10-13T19:34:36.765Z,86.10
2022-10-13T19:37:41.490Z,86.21
2022-10-13T19:40:54.392Z,86.81
2022-10-13T19:43:59.582Z,86.60
2022-10-13T19:47:12.745Z,86.78
2022-10-13T19:50:18.419Z,86.41
2022-10-13T19:53:25.543Z,86.58
2022-10-13T19:56:43.737Z,86.75
2022-10-13T19:59:50.174Z,87.20
2022-10-13T20:03:02.304Z,87.80
2022-10-13T20:06:15.919Z,88.02
2022-10-13T20:09:36.550Z,87.41
2022-10-13T20:12:49.536Z,87.54
2022-10-13T20:16:09.140Z,87.50
2022-10-13T20:19:19.570Z,87.42
2022-10-13T20:22:25.049Z,87.87
2022-10-13T20:25:34.397Z,87.59
2022-10-13T20:28:53.439Z,87.79
2022-10-13T20:31:59.192Z,87.78
2022-10-13T20:35:05.378Z,88.00
2022-10-13T20:38:10.699Z,87.80
2022-10-13T20:41:27.373Z,88.01
2022-10-13T20:44:37.361Z,88.08
2022-10-13T20:47:47.835Z,88.28
2022-10-13T20:50:59.835Z,87.93
2022-10-13T20:54:03.326Z,88.43
2022-10-13T20:57:12.403Z,88.19
2022-10-13T21:00:18.374Z,88.47
2022-10-13T21:03:24.786Z,88.80
2022-10-13T21:06:29.069Z,88.40
2022-10-13T21:09:37.700Z,88.52
2022-10-13T21:12:41.862Z,88.76
2022-10-13T21:15:46.485Z,89.37
2022-10-13T21:19:06.351Z,89.54
2022-10-13T21:22:09.861Z,89.04
2022-10-13T21:25:12.880Z,89.57
2022-10-13T21:28:41.810Z,89.27
2022-10-13T21:31:45.026Z,89.54
2022-10-13T21:34:50.879Z,89.61
2022-10-13T21:37:55.366Z,89.30
2022-10-13T21:41:05.610Z,89.76
2022-10-13T21:44:13.920Z,89.57
2022-10-13T21:47:16.982Z,89.31
2022-10-13T21:50:19.547Z,89.42
2022-10-13T21:53:22.539Z,89.82
2022-10-13T21:56:27.334Z,90.40
2022-10-13T21:59:31.691Z,90.40
2022-10-13T22:02:36.262Z,90.49
2022-10-13T22:05:39.153Z,90.50
2022-10-13T22:08:44.082Z,90.75
2022-10-13T22:11:56.613Z,90.59
2022-10-13T22:14:59.322Z,90.81
2022-10-13T22:18:03.487Z,90.60
2022-10-13T22:21:11.503Z,90.86
2022-10-13T22:24:19.064Z,91.07
2022-10-13T22:27:39.791Z,90.74
2022-10-13T22:30:42.872Z,90.31
2022-10-13T22:33:47.157Z,90.40
2022-10-13T22:36:51.669Z,90.64
2022-10-13T22:39:54.347Z,90.82
2022-10-13T22:42:57.402Z,90.57
2022-10-13T22:46:03.421Z,90.48
2022-10-13T22:49:13.456Z,90.86
2022-10-13T22:52:15.939Z,90.76
2022-10-13T22:55:26.845Z,90.75
2022-10-13T22:58:29.418Z,90.91
2022-10-13T23:01:32.894Z,91.01
2022-10-13T23:04:35.815Z,90.70
2022-10-13T23:07:39.660Z,91.03
2022-10-13T23:10:43.023Z,90.87
2022-10-13T23:13:46.145Z,90.81
2022-10-13T23:16:48.804Z,90.84
2022-10-13T23:19:51.852Z,90.88
2022-10-13T23:22:54.625Z,90.87
2022-10-13T23:26:05.676Z,91.42
2022-10-13T23:29:13.217Z,92.35
2022-10-13T23:32:23.340Z,91.42
2022-10-13T23:35:28.664Z,91.48
2022-10-13T23:38:32.386Z,91.61
2022-10-13T23:41:35.725Z,91.30
2022-10-13T23:44:39.160Z,90.84
2022-10-13T23:47:42.006Z,91.04
2022-10-13T23:50:45.364Z,91.51
2022-10-13T23:53:49.355Z,90.84
2022-10-13T23:56:53.363Z,91.30
2022-10-13T23:59:55.921Z,91.24
